sensor_id;sensor_type;location;lat;lon;timestamp;P1;durP1;ratioP1;P2;durP2;ratioP2
33162;SDS011;29282;45.656;11.302;2023-02-22T00:00:27;15.40;;;12.23;;
33162;SDS011;29282;45.656;11.302;2023-02-22T00:03:18;16.25;;;12.88;;
33162;SDS011;29282;45.656;11.302;2023-02-22T00:05:49;14.95;;;12.48;;
33162;SDS011;29282;45.656;11.302;2023-02-22T00:08:20;15.20;;;12.50;;
33162;SDS011;29282;45.656;11.302;2023-02-22T00:10:48;14.23;;;12.18;;
33162;SDS011;29282;45.656;11.302;2023-02-22T00:13:17;15.30;;;12.48;;
33162;SDS011;29282;45.656;11.302;2023-02-22T00:15:44;15.60;;;11.40;;
33162;SDS011;29282;45.656;11.302;2023-02-22T00:18:13;17.08;;;12.20;;
33162;SDS011;29282;45.656;11.302;2023-02-22T00:20:40;17.98;;;12.32;;
33162;SDS011;29282;45.656;11.302;2023-02-22T00:23:11;17.40;;;12.48;;
33162;SDS011;29282;45.656;11.302;2023-02-22T00:25:43;16.80;;;11.85;;
33162;SDS011;29282;45.656;11.302;2023-02-22T00:28:09;17.25;;;12.05;;
33162;SDS011;29282;45.656;11.302;2023-02-22T00:30:34;15.75;;;11.82;;
33162;SDS011;29282;45.656;11.302;2023-02-22T00:33:00;18.30;;;12.60;;
33162;SDS011;29282;45.656;11.302;2023-02-22T00:35:27;14.88;;;11.82;;
33162;SDS011;29282;45.656;11.302;2023-02-22T00:37:55;16.40;;;12.65;;
33162;SDS011;29282;45.656;11.302;2023-02-22T00:40:25;16.20;;;12.18;;
33162;SDS011;29282;45.656;11.302;2023-02-22T00:42:54;15.77;;;11.88;;
33162;SDS011;29282;45.656;11.302;2023-02-22T00:45:21;15.30;;;11.57;;
33162;SDS011;29282;45.656;11.302;2023-02-22T00:47:48;15.48;;;11.75;;
33162;SDS011;29282;45.656;11.302;2023-02-22T00:50:14;14.95;;;11.95;;
33162;SDS011;29282;45.656;11.302;2023-02-22T00:52:41;18.40;;;12.38;;
33162;SDS011;29282;45.656;11.302;2023-02-22T00:55:07;14.35;;;11.50;;
33162;SDS011;29282;45.656;11.302;2023-02-22T00:57:34;16.08;;;12.57;;
33162;SDS011;29282;45.656;11.302;2023-02-22T01:00:00;14.10;;;12.07;;
33162;SDS011;29282;45.656;11.302;2023-02-22T01:02:36;15.10;;;11.23;;
33162;SDS011;29282;45.656;11.302;2023-02-22T01:05:03;14.98;;;11.65;;
33162;SDS011;29282;45.656;11.302;2023-02-22T01:07:29;15.38;;;11.35;;
33162;SDS011;29282;45.656;11.302;2023-02-22T01:09:55;15.88;;;11.25;;
33162;SDS011;29282;45.656;11.302;2023-02-22T01:12:21;14.77;;;11.40;;
33162;SDS011;29282;45.656;11.302;2023-02-22T01:14:47;16.95;;;12.00;;
33162;SDS011;29282;45.656;11.302;2023-02-22T01:17:12;15.25;;;11.35;;
33162;SDS011;29282;45.656;11.302;2023-02-22T01:19:38;12.93;;;11.43;;
33162;SDS011;29282;45.656;11.302;2023-02-22T01:22:06;14.82;;;11.23;;
33162;SDS011;29282;45.656;11.302;2023-02-22T01:24:32;14.20;;;11.43;;
33162;SDS011;29282;45.656;11.302;2023-02-22T01:26:58;14.52;;;10.93;;
33162;SDS011;29282;45.656;11.302;2023-02-22T01:29:23;14.00;;;11.52;;
33162;SDS011;29282;45.656;11.302;2023-02-22T01:31:50;14.90;;;11.50;;
33162;SDS011;29282;45.656;11.302;2023-02-22T01:34:18;16.15;;;11.30;;
33162;SDS011;29282;45.656;11.302;2023-02-22T01:36:45;13.55;;;10.75;;
33162;SDS011;29282;45.656;11.302;2023-02-22T01:39:10;13.75;;;10.75;;
33162;SDS011;29282;45.656;11.302;2023-02-22T01:41:36;13.45;;;11.05;;
33162;SDS011;29282;45.656;11.302;2023-02-22T01:47:03;14.30;;;10.95;;
33162;SDS011;29282;45.656;11.302;2023-02-22T01:49:41;13.43;;;10.88;;
33162;SDS011;29282;45.656;11.302;2023-02-22T01:52:11;15.48;;;12.02;;
33162;SDS011;29282;45.656;11.302;2023-02-22T01:54:42;15.70;;;10.95;;
33162;SDS011;29282;45.656;11.302;2023-02-22T01:57:13;14.38;;;11.30;;
33162;SDS011;29282;45.656;11.302;2023-02-22T01:59:45;15.48;;;11.77;;
33162;SDS011;29282;45.656;11.302;2023-02-22T02:02:14;13.27;;;10.43;;
33162;SDS011;29282;45.656;11.302;2023-02-22T02:04:40;12.98;;;10.75;;
33162;SDS011;29282;45.656;11.302;2023-02-22T02:07:07;12.07;;;9.90;;
33162;SDS011;29282;45.656;11.302;2023-02-22T02:09:37;14.65;;;10.25;;
33162;SDS011;29282;45.656;11.302;2023-02-22T02:12:05;12.75;;;10.40;;
33162;SDS011;29282;45.656;11.302;2023-02-22T02:14:33;12.90;;;10.60;;
33162;SDS011;29282;45.656;11.302;2023-02-22T02:17:04;13.07;;;10.70;;
33162;SDS011;29282;45.656;11.302;2023-02-22T02:20:16;14.27;;;10.52;;
33162;SDS011;29282;45.656;11.302;2023-02-22T02:39:58;13.35;;;10.20;;
33162;SDS011;29282;45.656;11.302;2023-02-22T02:42:38;13.30;;;9.93;;
33162;SDS011;29282;45.656;11.302;2023-02-22T02:45:10;13.85;;;10.35;;
33162;SDS011;29282;45.656;11.302;2023-02-22T02:47:41;13.82;;;10.52;;
33162;SDS011;29282;45.656;11.302;2023-02-22T02:52:40;14.35;;;10.80;;
33162;SDS011;29282;45.656;11.302;2023-02-22T02:55:08;11.93;;;9.95;;
33162;SDS011;29282;45.656;11.302;2023-02-22T02:57:35;13.35;;;10.25;;
33162;SDS011;29282;45.656;11.302;2023-02-22T03:00:03;15.68;;;10.52;;
33162;SDS011;29282;45.656;11.302;2023-02-22T03:08:10;12.55;;;9.98;;
33162;SDS011;29282;45.656;11.302;2023-02-22T03:11:02;12.23;;;10.13;;
33162;SDS011;29282;45.656;11.302;2023-02-22T03:19:07;15.20;;;10.45;;
33162;SDS011;29282;45.656;11.302;2023-02-22T03:21:49;13.27;;;9.98;;
33162;SDS011;29282;45.656;11.302;2023-02-22T03:24:24;12.45;;;10.02;;
33162;SDS011;29282;45.656;11.302;2023-02-22T03:29:29;11.80;;;10.23;;
33162;SDS011;29282;45.656;11.302;2023-02-22T03:31:59;11.57;;;10.10;;
33162;SDS011;29282;45.656;11.302;2023-02-22T03:34:35;12.35;;;9.38;;
33162;SDS011;29282;45.656;11.302;2023-02-22T03:37:07;12.77;;;9.93;;
33162;SDS011;29282;45.656;11.302;2023-02-22T03:39:39;12.23;;;9.85;;
33162;SDS011;29282;45.656;11.302;2023-02-22T03:42:08;11.50;;;9.32;;
33162;SDS011;29282;45.656;11.302;2023-02-22T03:44:39;11.95;;;10.05;;
33162;SDS011;29282;45.656;11.302;2023-02-22T03:47:08;11.98;;;9.52;;
33162;SDS011;29282;45.656;11.302;2023-02-22T03:49:44;12.45;;;10.45;;
33162;SDS011;29282;45.656;11.302;2023-02-22T03:52:10;11.90;;;9.40;;
33162;SDS011;29282;45.656;11.302;2023-02-22T03:54:37;12.57;;;10.18;;
33162;SDS011;29282;45.656;11.302;2023-02-22T03:57:05;12.32;;;9.85;;
33162;SDS011;29282;45.656;11.302;2023-02-22T03:59:36;13.07;;;9.90;;
33162;SDS011;29282;45.656;11.302;2023-02-22T04:02:02;11.38;;;9.45;;
33162;SDS011;29282;45.656;11.302;2023-02-22T04:04:27;13.32;;;9.43;;
33162;SDS011;29282;45.656;11.302;2023-02-22T04:06:53;11.77;;;8.80;;
33162;SDS011;29282;45.656;11.302;2023-02-22T04:09:19;13.73;;;9.20;;
33162;SDS011;29282;45.656;11.302;2023-02-22T04:11:44;11.18;;;9.52;;
33162;SDS011;29282;45.656;11.302;2023-02-22T04:14:11;11.02;;;9.32;;
33162;SDS011;29282;45.656;11.302;2023-02-22T04:16:37;13.55;;;9.60;;
33162;SDS011;29282;45.656;11.302;2023-02-22T04:19:03;13.50;;;9.80;;
33162;SDS011;29282;45.656;11.302;2023-02-22T04:21:29;13.90;;;10.15;;
33162;SDS011;29282;45.656;11.302;2023-02-22T04:23:54;12.00;;;9.57;;
33162;SDS011;29282;45.656;11.302;2023-02-22T04:26:20;11.75;;;9.18;;
33162;SDS011;29282;45.656;11.302;2023-02-22T04:28:45;11.27;;;9.45;;
33162;SDS011;29282;45.656;11.302;2023-02-22T04:31:11;11.63;;;9.07;;
33162;SDS011;29282;45.656;11.302;2023-02-22T04:33:36;12.15;;;9.85;;
33162;SDS011;29282;45.656;11.302;2023-02-22T04:36:01;11.73;;;9.23;;
33162;SDS011;29282;45.656;11.302;2023-02-22T04:38:27;11.43;;;9.32;;
33162;SDS011;29282;45.656;11.302;2023-02-22T04:40:53;10.55;;;8.45;;
33162;SDS011;29282;45.656;11.302;2023-02-22T04:43:19;11.82;;;9.23;;
33162;SDS011;29282;45.656;11.302;2023-02-22T04:45:45;11.63;;;8.93;;
33162;SDS011;29282;45.656;11.302;2023-02-22T04:48:11;10.40;;;8.48;;
33162;SDS011;29282;45.656;11.302;2023-02-22T04:50:36;12.05;;;9.68;;
33162;SDS011;29282;45.656;11.302;2023-02-22T04:53:03;12.20;;;9.05;;
33162;SDS011;29282;45.656;11.302;2023-02-22T04:55:29;12.15;;;8.70;;
33162;SDS011;29282;45.656;11.302;2023-02-22T04:57:55;11.60;;;8.75;;
33162;SDS011;29282;45.656;11.302;2023-02-22T05:00:22;14.95;;;11.02;;
33162;SDS011;29282;45.656;11.302;2023-02-22T05:02:48;21.27;;;14.77;;
33162;SDS011;29282;45.656;11.302;2023-02-22T05:05:15;48.88;;;30.42;;
33162;SDS011;29282;45.656;11.302;2023-02-22T05:07:42;31.63;;;21.83;;
33162;SDS011;29282;45.656;11.302;2023-02-22T05:10:08;35.42;;;23.73;;
33162;SDS011;29282;45.656;11.302;2023-02-22T05:12:35;40.35;;;24.80;;
33162;SDS011;29282;45.656;11.302;2023-02-22T05:15:01;48.38;;;25.77;;
33162;SDS011;29282;45.656;11.302;2023-02-22T05:17:28;37.88;;;23.77;;
33162;SDS011;29282;45.656;11.302;2023-02-22T05:19:53;38.40;;;23.50;;
33162;SDS011;29282;45.656;11.302;2023-02-22T05:22:19;34.50;;;22.35;;
33162;SDS011;29282;45.656;11.302;2023-02-22T05:24:44;34.10;;;21.45;;
33162;SDS011;29282;45.656;11.302;2023-02-22T05:27:09;31.40;;;21.20;;
33162;SDS011;29282;45.656;11.302;2023-02-22T05:29:35;31.20;;;20.10;;
33162;SDS011;29282;45.656;11.302;2023-02-22T05:32:02;29.10;;;19.35;;
33162;SDS011;29282;45.656;11.302;2023-02-22T05:34:28;29.23;;;18.90;;
33162;SDS011;29282;45.656;11.302;2023-02-22T05:36:55;28.95;;;18.30;;
33162;SDS011;29282;45.656;11.302;2023-02-22T05:39:20;27.77;;;18.45;;
33162;SDS011;29282;45.656;11.302;2023-02-22T05:41:46;25.70;;;17.10;;
33162;SDS011;29282;45.656;11.302;2023-02-22T05:44:11;24.67;;;16.75;;
33162;SDS011;29282;45.656;11.302;2023-02-22T05:46:37;26.33;;;15.90;;
33162;SDS011;29282;45.656;11.302;2023-02-22T05:49:02;23.75;;;15.15;;
33162;SDS011;29282;45.656;11.302;2023-02-22T05:51:27;24.05;;;15.77;;
33162;SDS011;29282;45.656;11.302;2023-02-22T05:53:53;22.77;;;14.35;;
33162;SDS011;29282;45.656;11.302;2023-02-22T05:56:21;19.45;;;13.25;;
33162;SDS011;29282;45.656;11.302;2023-02-22T05:58:48;21.58;;;13.65;;
33162;SDS011;29282;45.656;11.302;2023-02-22T06:01:14;20.27;;;13.65;;
33162;SDS011;29282;45.656;11.302;2023-02-22T06:03:39;20.52;;;13.18;;
33162;SDS011;29282;45.656;11.302;2023-02-22T06:06:05;18.40;;;12.80;;
33162;SDS011;29282;45.656;11.302;2023-02-22T06:08:31;18.77;;;13.02;;
33162;SDS011;29282;45.656;11.302;2023-02-22T06:10:56;18.20;;;11.93;;
33162;SDS011;29282;45.656;11.302;2023-02-22T06:13:22;18.63;;;11.82;;
33162;SDS011;29282;45.656;11.302;2023-02-22T06:15:47;15.55;;;11.85;;
33162;SDS011;29282;45.656;11.302;2023-02-22T06:18:13;16.08;;;11.27;;
33162;SDS011;29282;45.656;11.302;2023-02-22T06:20:39;17.58;;;12.15;;
33162;SDS011;29282;45.656;11.302;2023-02-22T06:23:05;18.00;;;11.85;;
33162;SDS011;29282;45.656;11.302;2023-02-22T06:25:31;19.70;;;11.88;;
33162;SDS011;29282;45.656;11.302;2023-02-22T06:27:57;16.80;;;11.48;;
33162;SDS011;29282;45.656;11.302;2023-02-22T06:30:24;18.63;;;11.95;;
33162;SDS011;29282;45.656;11.302;2023-02-22T06:32:51;15.57;;;11.07;;
33162;SDS011;29282;45.656;11.302;2023-02-22T06:35:16;17.42;;;10.95;;
33162;SDS011;29282;45.656;11.302;2023-02-22T06:37:42;14.70;;;10.82;;
33162;SDS011;29282;45.656;11.302;2023-02-22T06:40:08;15.93;;;11.20;;
33162;SDS011;29282;45.656;11.302;2023-02-22T06:42:35;13.98;;;10.48;;
33162;SDS011;29282;45.656;11.302;2023-02-22T06:45:02;16.38;;;10.18;;
33162;SDS011;29282;45.656;11.302;2023-02-22T06:47:28;14.68;;;10.18;;
33162;SDS011;29282;45.656;11.302;2023-02-22T06:49:54;16.25;;;10.25;;
33162;SDS011;29282;45.656;11.302;2023-02-22T06:52:20;16.80;;;10.30;;
33162;SDS011;29282;45.656;11.302;2023-02-22T06:54:46;14.18;;;10.32;;
33162;SDS011;29282;45.656;11.302;2023-02-22T06:57:12;16.90;;;11.07;;
33162;SDS011;29282;45.656;11.302;2023-02-22T06:59:38;14.50;;;9.75;;
33162;SDS011;29282;45.656;11.302;2023-02-22T07:02:03;14.48;;;9.63;;
33162;SDS011;29282;45.656;11.302;2023-02-22T07:04:29;15.82;;;10.32;;
33162;SDS011;29282;45.656;11.302;2023-02-22T07:06:55;19.30;;;10.88;;
33162;SDS011;29282;45.656;11.302;2023-02-22T07:09:21;14.50;;;10.32;;
33162;SDS011;29282;45.656;11.302;2023-02-22T07:11:47;19.30;;;10.65;;
33162;SDS011;29282;45.656;11.302;2023-02-22T07:14:15;14.35;;;9.35;;
33162;SDS011;29282;45.656;11.302;2023-02-22T07:16:41;21.20;;;10.27;;
33162;SDS011;29282;45.656;11.302;2023-02-22T07:19:06;17.13;;;10.38;;
33162;SDS011;29282;45.656;11.302;2023-02-22T07:21:32;21.55;;;9.65;;
33162;SDS011;29282;45.656;11.302;2023-02-22T07:23:58;13.18;;;9.32;;
33162;SDS011;29282;45.656;11.302;2023-02-22T07:26:23;16.30;;;9.48;;
33162;SDS011;29282;45.656;11.302;2023-02-22T07:28:50;22.38;;;9.55;;
33162;SDS011;29282;45.656;11.302;2023-02-22T07:31:16;22.80;;;10.23;;
33162;SDS011;29282;45.656;11.302;2023-02-22T07:33:44;28.55;;;10.38;;
33162;SDS011;29282;45.656;11.302;2023-02-22T07:36:10;22.30;;;10.38;;
33162;SDS011;29282;45.656;11.302;2023-02-22T07:38:37;17.83;;;10.40;;
33162;SDS011;29282;45.656;11.302;2023-02-22T07:41:03;15.93;;;11.50;;
33162;SDS011;29282;45.656;11.302;2023-02-22T07:43:29;17.27;;;10.82;;
33162;SDS011;29282;45.656;11.302;2023-02-22T07:45:56;16.15;;;10.48;;
33162;SDS011;29282;45.656;11.302;2023-02-22T07:48:24;19.55;;;10.30;;
33162;SDS011;29282;45.656;11.302;2023-02-22T07:50:52;26.05;;;10.60;;
33162;SDS011;29282;45.656;11.302;2023-02-22T07:53:22;21.77;;;10.95;;
33162;SDS011;29282;45.656;11.302;2023-02-22T07:55:49;17.25;;;10.23;;
33162;SDS011;29282;45.656;11.302;2023-02-22T07:58:20;26.60;;;9.88;;
33162;SDS011;29282;45.656;11.302;2023-02-22T08:00:47;16.27;;;9.88;;
33162;SDS011;29282;45.656;11.302;2023-02-22T08:03:13;14.23;;;10.07;;
33162;SDS011;29282;45.656;11.302;2023-02-22T08:05:41;17.10;;;10.20;;
33162;SDS011;29282;45.656;11.302;2023-02-22T08:08:10;17.88;;;10.05;;
33162;SDS011;29282;45.656;11.302;2023-02-22T08:10:35;13.52;;;9.35;;
33162;SDS011;29282;45.656;11.302;2023-02-22T08:13:02;14.90;;;9.48;;
33162;SDS011;29282;45.656;11.302;2023-02-22T08:15:29;14.55;;;9.90;;
33162;SDS011;29282;45.656;11.302;2023-02-22T08:17:56;16.77;;;9.98;;
33162;SDS011;29282;45.656;11.302;2023-02-22T08:20:23;19.45;;;9.18;;
33162;SDS011;29282;45.656;11.302;2023-02-22T08:22:49;13.32;;;9.43;;
33162;SDS011;29282;45.656;11.302;2023-02-22T08:25:16;13.45;;;9.90;;
33162;SDS011;29282;45.656;11.302;2023-02-22T08:27:44;13.80;;;9.15;;
33162;SDS011;29282;45.656;11.302;2023-02-22T08:30:14;14.73;;;9.10;;
33162;SDS011;29282;45.656;11.302;2023-02-22T08:32:45;15.50;;;9.10;;
33162;SDS011;29282;45.656;11.302;2023-02-22T08:35:12;16.63;;;9.93;;
33162;SDS011;29282;45.656;11.302;2023-02-22T08:37:45;14.00;;;9.02;;
33162;SDS011;29282;45.656;11.302;2023-02-22T08:40:13;11.27;;;8.90;;
33162;SDS011;29282;45.656;11.302;2023-02-22T08:42:43;13.38;;;9.13;;
33162;SDS011;29282;45.656;11.302;2023-02-22T08:45:09;14.15;;;8.95;;
33162;SDS011;29282;45.656;11.302;2023-02-22T08:47:35;12.93;;;8.85;;
33162;SDS011;29282;45.656;11.302;2023-02-22T08:50:00;13.65;;;8.93;;
33162;SDS011;29282;45.656;11.302;2023-02-22T08:52:26;11.70;;;8.68;;
33162;SDS011;29282;45.656;11.302;2023-02-22T08:54:52;12.95;;;8.93;;
33162;SDS011;29282;45.656;11.302;2023-02-22T08:57:17;11.95;;;8.60;;
33162;SDS011;29282;45.656;11.302;2023-02-22T08:59:43;13.70;;;8.60;;
33162;SDS011;29282;45.656;11.302;2023-02-22T09:02:15;11.35;;;8.80;;
33162;SDS011;29282;45.656;11.302;2023-02-22T09:04:42;13.47;;;9.47;;
33162;SDS011;29282;45.656;11.302;2023-02-22T09:07:08;10.85;;;8.75;;
33162;SDS011;29282;45.656;11.302;2023-02-22T09:09:34;12.13;;;7.97;;
33162;SDS011;29282;45.656;11.302;2023-02-22T09:11:59;12.63;;;8.80;;
33162;SDS011;29282;45.656;11.302;2023-02-22T09:14:25;13.30;;;8.70;;
33162;SDS011;29282;45.656;11.302;2023-02-22T09:16:51;14.25;;;8.23;;
33162;SDS011;29282;45.656;11.302;2023-02-22T09:19:16;14.68;;;9.18;;
33162;SDS011;29282;45.656;11.302;2023-02-22T09:21:42;12.43;;;8.02;;
33162;SDS011;29282;45.656;11.302;2023-02-22T09:24:07;10.45;;;7.95;;
33162;SDS011;29282;45.656;11.302;2023-02-22T09:26:36;11.90;;;8.63;;
33162;SDS011;29282;45.656;11.302;2023-02-22T09:29:06;10.30;;;8.15;;
33162;SDS011;29282;45.656;11.302;2023-02-22T09:31:37;10.52;;;8.32;;
33162;SDS011;29282;45.656;11.302;2023-02-22T09:34:04;12.23;;;8.45;;
33162;SDS011;29282;45.656;11.302;2023-02-22T09:36:40;12.05;;;8.20;;
33162;SDS011;29282;45.656;11.302;2023-02-22T09:39:13;10.80;;;7.97;;
33162;SDS011;29282;45.656;11.302;2023-02-22T09:44:33;10.73;;;8.00;;
33162;SDS011;29282;45.656;11.302;2023-02-22T09:47:06;11.20;;;8.15;;
33162;SDS011;29282;45.656;11.302;2023-02-22T09:49:39;13.43;;;8.13;;
33162;SDS011;29282;45.656;11.302;2023-02-22T09:52:16;8.85;;;7.55;;
33162;SDS011;29282;45.656;11.302;2023-02-22T09:54:43;9.90;;;7.90;;
33162;SDS011;29282;45.656;11.302;2023-02-22T09:57:23;10.18;;;7.47;;
33162;SDS011;29282;45.656;11.302;2023-02-22T10:02:29;9.18;;;7.50;;
33162;SDS011;29282;45.656;11.302;2023-02-22T10:05:01;9.95;;;7.60;;
33162;SDS011;29282;45.656;11.302;2023-02-22T10:07:38;10.82;;;7.70;;
33162;SDS011;29282;45.656;11.302;2023-02-22T10:10:13;10.23;;;7.97;;
33162;SDS011;29282;45.656;11.302;2023-02-22T10:12:45;10.43;;;7.60;;
33162;SDS011;29282;45.656;11.302;2023-02-22T10:25:37;9.43;;;7.50;;
33162;SDS011;29282;45.656;11.302;2023-02-22T10:28:25;8.50;;;7.20;;
33162;SDS011;29282;45.656;11.302;2023-02-22T10:30:59;10.40;;;7.05;;
33162;SDS011;29282;45.656;11.302;2023-02-22T10:33:29;8.13;;;7.23;;
33162;SDS011;29282;45.656;11.302;2023-02-22T10:36:07;10.13;;;7.72;;
33162;SDS011;29282;45.656;11.302;2023-02-22T10:38:43;9.55;;;6.68;;
33162;SDS011;29282;45.656;11.302;2023-02-22T10:41:33;8.65;;;6.82;;
33162;SDS011;29282;45.656;11.302;2023-02-22T10:44:03;10.30;;;7.25;;
33162;SDS011;29282;45.656;11.302;2023-02-22T10:46:29;11.00;;;7.28;;
33162;SDS011;29282;45.656;11.302;2023-02-22T10:48:59;8.48;;;6.90;;
33162;SDS011;29282;45.656;11.302;2023-02-22T10:51:28;9.02;;;7.43;;
33162;SDS011;29282;45.656;11.302;2023-02-22T10:54:01;9.10;;;6.43;;
33162;SDS011;29282;45.656;11.302;2023-02-22T10:56:45;9.93;;;6.97;;
33162;SDS011;29282;45.656;11.302;2023-02-22T10:59:12;8.32;;;7.07;;
33162;SDS011;29282;45.656;11.302;2023-02-22T11:01:51;9.50;;;7.15;;
33162;SDS011;29282;45.656;11.302;2023-02-22T11:04:18;9.48;;;6.68;;
33162;SDS011;29282;45.656;11.302;2023-02-22T11:06:49;8.98;;;7.22;;
33162;SDS011;29282;45.656;11.302;2023-02-22T11:09:44;8.70;;;7.20;;
33162;SDS011;29282;45.656;11.302;2023-02-22T11:12:24;9.20;;;6.97;;
33162;SDS011;29282;45.656;11.302;2023-02-22T11:14:50;8.63;;;6.60;;
33162;SDS011;29282;45.656;11.302;2023-02-22T11:17:17;9.02;;;6.60;;
33162;SDS011;29282;45.656;11.302;2023-02-22T11:19:48;10.02;;;6.85;;
33162;SDS011;29282;45.656;11.302;2023-02-22T11:22:19;9.65;;;6.65;;
33162;SDS011;29282;45.656;11.302;2023-02-22T11:24:49;8.88;;;6.75;;
33162;SDS011;29282;45.656;11.302;2023-02-22T11:32:47;9.38;;;6.85;;
33162;SDS011;29282;45.656;11.302;2023-02-22T11:35:22;8.73;;;6.80;;
33162;SDS011;29282;45.656;11.302;2023-02-22T11:38:08;9.18;;;7.05;;
33162;SDS011;29282;45.656;11.302;2023-02-22T11:41:10;9.68;;;7.07;;
33162;SDS011;29282;45.656;11.302;2023-02-22T11:43:42;9.23;;;6.80;;
33162;SDS011;29282;45.656;11.302;2023-02-22T11:46:12;8.45;;;6.22;;
33162;SDS011;29282;45.656;11.302;2023-02-22T11:49:31;9.40;;;6.93;;
33162;SDS011;29282;45.656;11.302;2023-02-22T12:02:22;9.57;;;6.78;;
33162;SDS011;29282;45.656;11.302;2023-02-22T12:10:02;9.38;;;7.10;;
33162;SDS011;29282;45.656;11.302;2023-02-22T12:15:47;10.80;;;6.78;;
33162;SDS011;29282;45.656;11.302;2023-02-22T12:20:56;9.82;;;7.38;;
33162;SDS011;29282;45.656;11.302;2023-02-22T12:26:38;9.60;;;6.70;;
33162;SDS011;29282;45.656;11.302;2023-02-22T12:34:38;8.70;;;6.82;;
33162;SDS011;29282;45.656;11.302;2023-02-22T12:37:11;10.40;;;7.30;;
33162;SDS011;29282;45.656;11.302;2023-02-22T12:42:52;10.45;;;7.30;;
33162;SDS011;29282;45.656;11.302;2023-02-22T12:45:26;9.68;;;7.45;;
33162;SDS011;29282;45.656;11.302;2023-02-22T12:48:19;9.93;;;7.60;;
33162;SDS011;29282;45.656;11.302;2023-02-22T12:51:18;10.27;;;7.43;;
33162;SDS011;29282;45.656;11.302;2023-02-22T12:57:04;10.32;;;7.35;;
33162;SDS011;29282;45.656;11.302;2023-02-22T12:59:54;10.55;;;7.68;;
33162;SDS011;29282;45.656;11.302;2023-02-22T13:04:52;10.48;;;8.13;;
33162;SDS011;29282;45.656;11.302;2023-02-22T13:07:24;10.23;;;7.80;;
33162;SDS011;29282;45.656;11.302;2023-02-22T13:15:23;15.55;;;8.02;;
33162;SDS011;29282;45.656;11.302;2023-02-22T13:20:28;11.55;;;8.30;;
33162;SDS011;29282;45.656;11.302;2023-02-22T13:29:03;10.65;;;7.97;;
33162;SDS011;29282;45.656;11.302;2023-02-22T13:37:43;10.55;;;7.72;;
33162;SDS011;29282;45.656;11.302;2023-02-22T13:57:44;14.48;;;8.93;;
33162;SDS011;29282;45.656;11.302;2023-02-22T14:06:03;14.68;;;9.48;;
33162;SDS011;29282;45.656;11.302;2023-02-22T14:13:32;15.52;;;9.45;;
33162;SDS011;29282;45.656;11.302;2023-02-22T14:16:24;13.75;;;9.38;;
33162;SDS011;29282;45.656;11.302;2023-02-22T14:21:26;17.20;;;9.73;;
33162;SDS011;29282;45.656;11.302;2023-02-22T14:23:52;12.57;;;8.95;;
33162;SDS011;29282;45.656;11.302;2023-02-22T14:26:38;12.70;;;9.32;;
33162;SDS011;29282;45.656;11.302;2023-02-22T14:37:00;14.38;;;9.55;;
33162;SDS011;29282;45.656;11.302;2023-02-22T14:39:33;12.57;;;9.63;;
33162;SDS011;29282;45.656;11.302;2023-02-22T14:42:05;14.73;;;9.25;;
33162;SDS011;29282;45.656;11.302;2023-02-22T14:44:41;13.20;;;8.77;;
33162;SDS011;29282;45.656;11.302;2023-02-22T14:47:17;15.90;;;9.38;;
33162;SDS011;29282;45.656;11.302;2023-02-22T14:49:52;13.25;;;8.80;;
33162;SDS011;29282;45.656;11.302;2023-02-22T14:52:29;17.13;;;9.75;;
33162;SDS011;29282;45.656;11.302;2023-02-22T14:55:03;15.95;;;9.90;;
33162;SDS011;29282;45.656;11.302;2023-02-22T15:00:24;16.63;;;9.80;;
33162;SDS011;29282;45.656;11.302;2023-02-22T15:02:55;14.30;;;9.98;;
33162;SDS011;29282;45.656;11.302;2023-02-22T15:05:29;13.85;;;9.57;;
33162;SDS011;29282;45.656;11.302;2023-02-22T15:08:02;12.35;;;9.02;;
33162;SDS011;29282;45.656;11.302;2023-02-22T15:10:47;14.63;;;9.68;;
33162;SDS011;29282;45.656;11.302;2023-02-22T15:13:19;15.37;;;9.23;;
33162;SDS011;29282;45.656;11.302;2023-02-22T15:16:01;14.80;;;9.38;;
33162;SDS011;29282;45.656;11.302;2023-02-22T15:18:45;13.93;;;9.57;;
33162;SDS011;29282;45.656;11.302;2023-02-22T15:21:13;13.02;;;8.77;;
33162;SDS011;29282;45.656;11.302;2023-02-22T15:26:07;15.27;;;9.25;;
33162;SDS011;29282;45.656;11.302;2023-02-22T15:28:45;14.57;;;10.05;;
33162;SDS011;29282;45.656;11.302;2023-02-22T15:31:15;14.40;;;8.88;;
33162;SDS011;29282;45.656;11.302;2023-02-22T15:33:51;14.18;;;9.20;;
33162;SDS011;29282;45.656;11.302;2023-02-22T15:36:18;11.93;;;9.52;;
33162;SDS011;29282;45.656;11.302;2023-02-22T15:38:49;12.63;;;9.63;;
33162;SDS011;29282;45.656;11.302;2023-02-22T15:41:21;12.57;;;8.95;;
33162;SDS011;29282;45.656;11.302;2023-02-22T15:44:02;15.38;;;9.27;;
33162;SDS011;29282;45.656;11.302;2023-02-22T15:46:32;12.93;;;9.60;;
33162;SDS011;29282;45.656;11.302;2023-02-22T15:51:34;15.02;;;10.18;;
33162;SDS011;29282;45.656;11.302;2023-02-22T15:54:01;10.77;;;9.02;;
33162;SDS011;29282;45.656;11.302;2023-02-22T15:56:30;12.75;;;9.10;;
33162;SDS011;29282;45.656;11.302;2023-02-22T15:59:08;12.93;;;9.38;;
33162;SDS011;29282;45.656;11.302;2023-02-22T16:01:40;15.35;;;9.63;;
33162;SDS011;29282;45.656;11.302;2023-02-22T16:04:14;15.23;;;10.05;;
33162;SDS011;29282;45.656;11.302;2023-02-22T16:06:44;14.57;;;9.35;;
33162;SDS011;29282;45.656;11.302;2023-02-22T16:12:07;12.68;;;9.70;;
33162;SDS011;29282;45.656;11.302;2023-02-22T16:14:45;12.48;;;10.20;;
33162;SDS011;29282;45.656;11.302;2023-02-22T16:22:41;14.02;;;10.70;;
33162;SDS011;29282;45.656;11.302;2023-02-22T16:27:49;14.50;;;10.20;;
33162;SDS011;29282;45.656;11.302;2023-02-22T16:32:48;11.75;;;9.48;;
33162;SDS011;29282;45.656;11.302;2023-02-22T16:35:15;13.15;;;9.60;;
33162;SDS011;29282;45.656;11.302;2023-02-22T16:37:47;13.88;;;9.65;;
33162;SDS011;29282;45.656;11.302;2023-02-22T16:40:18;14.77;;;9.73;;
33162;SDS011;29282;45.656;11.302;2023-02-22T16:42:46;15.20;;;9.43;;
33162;SDS011;29282;45.656;11.302;2023-02-22T16:45:15;13.70;;;9.68;;
33162;SDS011;29282;45.656;11.302;2023-02-22T16:47:45;13.73;;;9.68;;
33162;SDS011;29282;45.656;11.302;2023-02-22T16:50:11;12.57;;;9.75;;
33162;SDS011;29282;45.656;11.302;2023-02-22T16:52:39;12.70;;;9.95;;
33162;SDS011;29282;45.656;11.302;2023-02-22T16:55:08;14.90;;;10.00;;
33162;SDS011;29282;45.656;11.302;2023-02-22T16:57:36;19.48;;;9.73;;
33162;SDS011;29282;45.656;11.302;2023-02-22T17:00:03;14.32;;;9.27;;
33162;SDS011;29282;45.656;11.302;2023-02-22T17:02:37;16.67;;;9.88;;
33162;SDS011;29282;45.656;11.302;2023-02-22T17:05:03;14.10;;;9.60;;
33162;SDS011;29282;45.656;11.302;2023-02-22T17:07:29;14.27;;;9.00;;
33162;SDS011;29282;45.656;11.302;2023-02-22T17:09:58;12.90;;;9.10;;
33162;SDS011;29282;45.656;11.302;2023-02-22T17:12:27;14.45;;;9.48;;
33162;SDS011;29282;45.656;11.302;2023-02-22T17:14:55;11.55;;;8.48;;
33162;SDS011;29282;45.656;11.302;2023-02-22T17:17:21;11.85;;;9.45;;
33162;SDS011;29282;45.656;11.302;2023-02-22T17:19:47;17.15;;;10.25;;
33162;SDS011;29282;45.656;11.302;2023-02-22T17:22:16;12.98;;;9.10;;
33162;SDS011;29282;45.656;11.302;2023-02-22T17:24:46;14.32;;;10.07;;
33162;SDS011;29282;45.656;11.302;2023-02-22T17:27:12;18.33;;;9.48;;
33162;SDS011;29282;45.656;11.302;2023-02-22T17:29:38;19.00;;;11.32;;